Time;durP1;ratioP1;P1;durP2;ratioP2;P2;SDS_P1;SDS_P2;PMS_P1;PMS_P2;Temp;Humidity;BMP_temperature;BMP_pressure;BME280_temperature;BME280_humidity;BME280_pressure;Samples;Min_cycle;Max_cycle;Signal;HPM_P1;HPM_P2
2022/10/11 00:01:02;;;;;;;21.30;9.20;;;;;;;8.79;63.64;99383.45;103134;1297;98063;-71
2022/10/11 00:03:38;;;;;;;20.90;8.70;;;;;;;8.90;63.77;99388.48;103072;1288;111823;-71
2022/10/11 00:06:07;;;;;;;20.10;8.50;;;;;;;8.99;63.69;99384.06;103045;1298;97981;-71
2022/10/11 00:08:36;;;;;;;21.60;8.40;;;;;;;9.05;63.73;99386.33;102919;1301;107488;-70
2022/10/11 00:11:07;;;;;;;25.70;10.60;;;;;;;9.10;63.64;99383.02;103124;1303;97943;-72
2022/10/11 00:13:36;;;;;;;21.40;10.00;;;;;;;9.13;63.42;99383.01;103143;1303;95176;-73
2022/10/11 00:16:10;;;;;;;24.30;10.10;;;;;;;9.11;63.44;99383.12;103062;1300;111136;-70
2022/10/11 00:18:40;;;;;;;23.30;11.30;;;;;;;9.06;63.39;99383.42;103135;1302;97895;-70
2022/10/11 00:21:12;;;;;;;26.20;11.50;;;;;;;8.96;63.50;99382.42;103167;1304;107413;-72
2022/10/11 00:23:41;;;;;;;27.20;11.00;;;;;;;8.85;63.74;99375.84;103071;1290;97873;-71
2022/10/11 00:26:10;;;;;;;24.70;11.40;;;;;;;8.77;63.65;99376.70;103176;1304;97974;-72
2022/10/11 00:28:40;;;;;;;25.30;11.40;;;;;;;8.70;63.66;99377.09;103058;1302;111333;-75
2022/10/11 00:31:13;;;;;;;25.10;12.50;;;;;;;8.66;63.54;99376.30;103066;1297;97845;-71
2022/10/11 00:33:41;;;;;;;24.90;11.90;;;;;;;8.61;63.56;99373.75;103068;1303;105581;-71
2022/10/11 00:36:12;;;;;;;25.30;12.40;;;;;;;8.55;63.52;99374.64;103150;1304;97972;-71
2022/10/11 00:38:43;;;;;;;28.20;13.30;;;;;;;8.50;63.75;99375.64;103123;1304;98456;-71
2022/10/11 00:41:13;;;;;;;27.30;12.50;;;;;;;8.43;63.47;99374.39;103135;1302;111058;-71
2022/10/11 00:43:41;;;;;;;27.80;13.60;;;;;;;8.35;63.57;99375.40;103115;1296;95845;-71
2022/10/11 00:46:14;;;;;;;27.60;12.50;;;;;;;8.28;63.63;99374.08;103026;1297;106212;-70
2022/10/11 00:48:53;;;;;;;26.60;12.00;;;;;;;8.23;63.86;99367.63;103056;1297;97988;-71
2022/10/11 00:51:41;;;;;;;25.70;12.30;;;;;;;8.21;64.13;99367.90;103092;1298;97919;-70
2022/10/11 00:54:14;;;;;;;26.60;11.70;;;;;;;8.22;64.38;99363.64;103127;1286;110872;-70
2022/10/11 00:56:48;;;;;;;24.80;12.40;;;;;;;8.24;64.35;99361.07;103183;1293;96312;-70
2022/10/11 00:59:23;;;;;;;27.60;14.00;;;;;;;8.24;64.20;99355.57;103078;1298;107461;-70
2022/10/11 01:01:52;;;;;;;23.70;11.10;;;;;;;8.24;64.24;99355.73;103091;1294;97853;-73
2022/10/11 01:04:21;;;;;;;23.80;12.00;;;;;;;8.23;64.35;99362.31;103146;1304;98075;-71
2022/10/11 01:06:51;;;;;;;23.20;11.80;;;;;;;8.23;64.40;99358.65;103055;1304;111114;-71
2022/10/11 01:09:21;;;;;;;25.00;11.90;;;;;;;8.22;64.27;99358.88;103089;1302;98278;-70
2022/10/11 01:11:52;;;;;;;21.20;10.10;;;;;;;8.21;64.38;99352.19;103083;1298;107558;-71
2022/10/11 01:14:42;;;;;;;24.50;10.50;;;;;;;8.21;64.47;99358.19;103102;1303;97875;-71
2022/10/11 01:17:40;;;;;;;21.50;10.10;;;;;;;8.22;64.49;99350.39;103120;1305;97965;-71
2022/10/11 01:20:16;;;;;;;21.00;9.70;;;;;;;8.24;64.60;99352.94;103052;1297;110464;-71
2022/10/11 01:23:23;;;;;;;20.60;8.80;;;;;;;8.26;64.68;99352.07;103124;1303;97942;-71
2022/10/11 01:26:02;;;;;;;19.00;8.20;;;;;;;8.31;64.83;99346.14;103070;1304;107097;-71
2022/10/11 01:28:49;;;;;;;21.30;8.10;;;;;;;8.36;64.80;99350.63;103047;1299;97983;-71
2022/10/11 01:31:34;;;;;;;21.60;8.80;;;;;;;8.42;64.79;99344.42;103167;1297;96067;-70
2022/10/11 01:34:22;;;;;;;19.90;8.00;;;;;;;8.48;64.82;99347.79;103054;1298;111241;-70
2022/10/11 01:37:04;;;;;;;18.80;9.00;;;;;;;8.57;64.93;99348.39;103051;1300;95866;-69
2022/10/11 01:39:42;;;;;;;18.80;7.60;;;;;;;8.64;64.90;99352.70;103033;1304;106622;-71
2022/10/11 01:42:12;;;;;;;20.40;8.40;;;;;;;8.70;64.99;99349.69;103088;1304;98019;-70
2022/10/11 01:44:45;;;;;;;18.30;7.90;;;;;;;8.77;65.06;99353.88;103162;1304;97918;-71
2022/10/11 01:47:13;;;;;;;12.90;5.70;;;;;;;8.84;65.03;99352.61;103131;1303;110244;-71
2022/10/11 01:49:42;;;;;;;20.60;8.00;;;;;;;8.89;65.09;99352.63;103130;1297;97902;-70
2022/10/11 01:52:11;;;;;;;18.60;7.90;;;;;;;8.94;65.09;99353.92;103143;1303;107525;-71
2022/10/11 01:55:04;;;;;;;20.50;8.40;;;;;;;8.98;65.06;99351.94;103111;1296;97942;-73
2022/10/11 01:58:05;;;;;;;18.60;8.20;;;;;;;9.02;65.12;99353.95;103124;1298;96576;-71
2022/10/11 02:01:04;;;;;;;20.30;8.20;;;;;;;9.07;65.12;99356.14;103135;1296;111117;-72
2022/10/11 02:03:55;;;;;;;18.80;8.40;;;;;;;9.13;65.19;99357.05;103107;1297;97918;-71
2022/10/11 02:06:32;;;;;;;18.20;8.10;;;;;;;9.18;65.14;99354.22;103125;1297;107342;-71
2022/10/11 02:09:28;;;;;;;18.20;7.70;;;;;;;9.22;65.11;99351.83;103148;1296;96323;-72
2022/10/11 02:12:07;;;;;;;17.00;7.50;;;;;;;9.27;65.11;99348.15;103156;1303;97928;-71
2022/10/11 02:14:40;;;;;;;17.50;7.50;;;;;;;9.32;65.20;99345.42;103132;1297;111030;-72
2022/10/11 02:17:14;;;;;;;;;;;;;;;9.35;65.09;99346.79;103013;1305;97883;-71
2022/10/11 02:19:49;;;;;;;17.40;6.90;;;;;;;9.36;65.25;99346.73;103151;1303;107546;-71
2022/10/11 02:22:33;;;;;;;;;;;;;;;9.37;65.14;99345.75;103151;1296;97940;-72
2022/10/11 02:25:08;;;;;;;18.70;7.10;;;;;;;9.36;65.24;99348.66;103112;1299;97942;-70
2022/10/11 02:27:39;;;;;;;16.80;7.00;;;;;;;9.38;65.19;99343.92;103002;1306;110874;-71
2022/10/11 02:30:11;;;;;;;16.40;7.20;;;;;;;9.39;65.16;99341.89;103093;1297;96279;-72
2022/10/11 02:32:43;;;;;;;21.20;7.90;;;;;;;9.40;65.04;99342.77;103152;1298;107202;-71
2022/10/11 02:35:12;;;;;;;18.00;7.60;;;;;;;9.39;65.19;99343.70;103160;1302;97601;-71
2022/10/11 02:38:01;;;;;;;16.20;7.20;;;;;;;9.39;65.22;99343.33;103136;1296;98381;-72
2022/10/11 02:40:36;;;;;;;16.50;6.70;;;;;;;9.39;65.33;99346.33;103108;1298;111136;-71
2022/10/11 02:43:30;;;;;;;16.50;7.00;;;;;;;9.40;65.29;99344.36;103152;1298;95294;-72
2022/10/11 02:46:02;;;;;;;17.00;7.60;;;;;;;9.39;65.35;99348.83;103084;1302;107331;-72
2022/10/11 02:48:34;;;;;;;16.30;7.80;;;;;;;9.39;65.35;99350.97;103165;1303;97997;-72
2022/10/11 02:51:04;;;;;;;17.60;7.80;;;;;;;9.38;65.32;99351.89;103176;1303;95135;-73
2022/10/11 02:53:32;;;;;;;20.10;7.30;;;;;;;9.39;65.33;99354.86;103171;1298;110913;-72
2022/10/11 02:56:00;;;;;;;18.50;7.60;;;;;;;9.39;65.31;99357.85;103106;1305;97982;-71
2022/10/11 02:58:29;;;;;;;17.60;7.00;;;;;;;9.40;65.30;99355.87;103117;1303;107131;-72
2022/10/11 03:00:57;;;;;;;19.80;7.80;;;;;;;9.40;65.39;99353.54;103159;1302;96390;-72
2022/10/11 03:03:27;;;;;;;22.00;7.40;;;;;;;9.41;65.28;99351.71;103204;1294;97890;-71
2022/10/11 03:06:01;;;;;;;16.50;7.00;;;;;;;9.43;65.36;99356.04;103119;1304;111227;-69
2022/10/11 03:08:31;;;;;;;18.30;6.80;;;;;;;9.44;65.44;99357.93;103092;1306;97777;-70
2022/10/11 03:10:59;;;;;;;18.30;7.10;;;;;;;9.45;65.47;99361.19;103062;1300;107794;-73
2022/10/11 03:13:27;;;;;;;18.90;6.70;;;;;;;9.47;65.42;99354.92;103107;1306;98015;-70
2022/10/11 03:15:55;;;;;;;14.40;6.50;;;;;;;9.47;65.49;99356.30;103152;1302;97887;-72
2022/10/11 03:18:32;;;;;;;18.00;7.10;;;;;;;9.48;65.50;99357.48;103117;1304;110843;-71
2022/10/11 03:21:01;;;;;;;14.50;6.20;;;;;;;9.49;65.43;99359.55;103196;1303;97832;-70
2022/10/11 03:23:29;;;;;;;18.40;6.40;;;;;;;9.50;65.44;99359.50;103175;1296;106648;-71
2022/10/11 03:25:57;;;;;;;18.10;7.10;;;;;;;9.51;65.53;99358.38;103156;1304;98127;-71
2022/10/11 03:28:24;;;;;;;14.40;7.10;;;;;;;9.50;65.57;99359.64;103161;1302;97990;-70
2022/10/11 03:30:52;;;;;;;16.40;6.50;;;;;;;9.51;65.53;99362.25;103042;1303;111115;-71
2022/10/11 03:33:21;;;;;;;14.50;6.30;;;;;;;9.51;65.54;99366.65;103067;1304;97929;-70
2022/10/11 03:35:49;;;;;;;16.10;6.30;;;;;;;9.51;65.51;99367.19;103017;1307;106662;-71
2022/10/11 03:38:20;;;;;;;17.20;7.60;;;;;;;9.51;65.46;99368.59;103028;1290;97948;-73
2022/10/11 03:40:48;;;;;;;17.00;6.80;;;;;;;9.51;65.49;99365.96;103044;1287;97775;-71
2022/10/11 03:43:17;;;;;;;16.90;6.40;;;;;;;9.52;65.59;99370.89;103083;1305;110841;-71
2022/10/11 03:45:44;;;;;;;13.10;6.10;;;;;;;9.52;65.54;99373.13;103163;1306;97758;-73
2022/10/11 03:48:12;;;;;;;18.70;6.80;;;;;;;9.52;65.54;99373.52;103112;1304;107382;-70
2022/10/11 03:50:41;;;;;;;16.70;6.80;;;;;;;9.52;65.49;99373.66;103032;1298;97887;-72
2022/10/11 03:53:09;;;;;;;16.50;6.60;;;;;;;9.54;65.58;99376.05;103127;1302;97972;-70
2022/10/11 03:55:39;;;;;;;17.60;6.70;;;;;;;9.54;65.48;99373.07;103094;1302;111066;-70
2022/10/11 03:58:07;;;;;;;20.30;7.70;;;;;;;9.52;65.55;99373.84;103065;1304;95837;-71
2022/10/11 04:00:35;;;;;;;17.80;7.10;;;;;;;9.52;65.55;99372.27;103130;1303;107492;-72
2022/10/11 04:03:03;;;;;;;18.20;7.20;;;;;;;9.53;65.66;99375.42;103136;1308;97895;-74
2022/10/11 04:05:33;;;;;;;19.60;7.10;;;;;;;9.52;65.69;99374.20;103171;1302;97968;-77
2022/10/11 04:08:02;;;;;;;15.60;6.80;;;;;;;9.51;65.59;99378.50;103176;1297;111179;-71
2022/10/11 04:10:35;;;;;;;16.20;6.80;;;;;;;9.50;65.65;99376.81;103157;1302;97897;-72
2022/10/11 04:13:04;;;;;;;16.70;7.00;;;;;;;9.49;65.60;99379.19;103152;1298;105999;-71
2022/10/11 04:15:33;;;;;;;18.60;7.10;;;;;;;9.47;65.75;99373.98;103071;1303;97075;-75
2022/10/11 04:18:00;;;;;;;15.40;6.30;;;;;;;9.46;65.64;99373.01;103123;1296;97896;-73
2022/10/11 04:20:28;;;;;;;15.00;6.80;;;;;;;9.46;65.67;99379.41;103117;1302;110850;-72
2022/10/11 04:22:55;;;;;;;18.40;6.80;;;;;;;9.44;65.66;99377.71;103113;1287;95246;-72
2022/10/11 04:25:24;;;;;;;16.10;6.60;;;;;;;9.43;65.62;99378.48;103021;1305;107409;-74
2022/10/11 04:27:52;;;;;;;17.30;7.00;;;;;;;9.42;65.69;99377.50;103085;1301;98007;-72
2022/10/11 04:30:20;;;;;;;17.00;6.50;;;;;;;9.42;65.61;99378.55;103051;1304;97900;-75
2022/10/11 04:32:49;;;;;;;15.40;6.20;;;;;;;9.42;65.63;99384.04;103094;1302;111105;-72
2022/10/11 04:35:18;;;;;;;14.90;6.60;;;;;;;9.42;65.79;99382.49;103183;1304;97896;-75
2022/10/11 04:37:46;;;;;;;14.70;6.80;;;;;;;9.42;65.66;99383.19;103156;1306;107163;-71
2022/10/11 04:40:13;;;;;;;16.40;7.10;;;;;;;9.42;65.76;99385.67;103129;1302;98311;-71
2022/10/11 04:42:41;;;;;;;16.30;6.60;;;;;;;9.44;65.74;99389.27;102256;1296;1243755;-71
2022/10/11 04:45:10;;;;;;;17.20;7.10;;;;;;;9.45;65.73;99394.86;103168;1299;111102;-70
2022/10/11 04:47:39;;;;;;;16.80;6.70;;;;;;;9.47;65.84;99392.80;103175;1297;97883;-73
2022/10/11 04:50:08;;;;;;;18.10;6.50;;;;;;;9.49;65.79;99395.83;103161;1298;107590;-71
2022/10/11 04:52:35;;;;;;;18.30;6.40;;;;;;;9.52;65.80;99405.89;103137;1302;97862;-73
2022/10/11 04:55:03;;;;;;;15.60;6.40;;;;;;;9.55;65.76;99405.57;103159;1302;98574;-73
2022/10/11 04:57:31;;;;;;;16.00;6.90;;;;;;;9.58;65.82;99408.36;103067;1297;112103;-72
2022/10/11 05:00:00;;;;;;;14.90;6.10;;;;;;;9.62;65.82;99409.69;103146;1304;97962;-72
2022/10/11 05:02:28;;;;;;;18.00;6.80;;;;;;;9.67;65.86;99412.03;103108;1303;107563;-73
2022/10/11 05:04:57;;;;;;;14.40;6.40;;;;;;;9.72;65.93;99413.33;103136;1304;97876;-73
2022/10/11 05:07:25;;;;;;;18.80;6.90;;;;;;;9.77;65.87;99414.62;103069;1306;97974;-72
2022/10/11 05:09:53;;;;;;;14.50;6.50;;;;;;;9.82;65.93;99420.12;103075;1302;110401;-72
2022/10/11 05:12:21;;;;;;;17.70;6.30;;;;;;;9.88;65.94;99421.00;103058;1303;97997;-72
2022/10/11 05:14:48;;;;;;;17.30;6.60;;;;;;;9.93;65.93;99424.58;103123;1306;106117;-72
2022/10/11 05:17:16;;;;;;;14.10;6.10;;;;;;;9.98;65.98;99420.37;103147;1303;98464;-72
2022/10/11 05:19:44;;;;;;;19.60;6.90;;;;;;;10.04;65.90;99424.59;103169;1302;95203;-70
2022/10/11 05:22:11;;;;;;;16.20;6.90;;;;;;;10.10;65.90;99425.65;103014;1300;110186;-73
2022/10/11 05:24:39;;;;;;;13.00;6.20;;;;;;;10.14;65.97;99426.23;103140;1305;97970;-72
2022/10/11 05:27:07;;;;;;;15.60;6.50;;;;;;;10.20;65.94;99431.36;103142;1302;106647;-72
2022/10/11 05:29:35;;;;;;;17.70;6.60;;;;;;;10.25;65.94;99430.52;103138;1305;97897;-72
2022/10/11 05:32:03;;;;;;;14.70;5.80;;;;;;;10.29;65.92;99433.06;103089;1305;96968;-72
2022/10/11 05:34:31;;;;;;;16.60;6.50;;;;;;;10.33;65.99;99431.38;102996;1304;110180;-72
2022/10/11 05:36:58;;;;;;;19.00;6.80;;;;;;;10.38;65.87;99433.73;103146;1302;95226;-72
2022/10/11 05:39:27;;;;;;;21.70;6.40;;;;;;;10.42;65.98;99433.45;103035;1303;107487;-72
2022/10/11 05:41:56;;;;;;;18.60;6.60;;;;;;;10.48;65.98;99439.30;103074;1302;98825;-72
2022/10/11 05:44:24;;;;;;;15.50;6.30;;;;;;;10.55;66.00;99445.80;103180;1303;97885;-74
2022/10/11 05:46:51;;;;;;;15.20;6.20;;;;;;;10.60;65.95;99445.26;103121;1297;110937;-72
2022/10/11 05:49:19;;;;;;;20.30;6.10;;;;;;;10.65;65.94;99446.17;103093;1296;97722;-72
2022/10/11 05:51:47;;;;;;;16.90;6.00;;;;;;;10.69;65.89;99454.05;103058;1301;105705;-73
2022/10/11 05:54:14;;;;;;;13.40;6.10;;;;;;;10.72;65.94;99452.09;103088;1303;95819;-72
2022/10/11 05:56:42;;;;;;;15.20;6.40;;;;;;;10.77;65.88;99455.90;103082;1306;97984;-72
2022/10/11 05:59:10;;;;;;;19.40;6.80;;;;;;;10.81;65.97;99456.48;103060;1304;111199;-72
2022/10/11 06:01:38;;;;;;;17.00;7.30;;;;;;;10.85;65.86;99460.82;103139;1306;95699;-72
2022/10/11 06:04:07;;;;;;;18.70;6.60;;;;;;;10.90;65.92;99462.27;103063;1303;107069;-72
2022/10/11 06:06:35;;;;;;;15.60;7.10;;;;;;;10.94;65.94;99471.20;103099;1300;97841;-73
2022/10/11 06:09:03;;;;;;;13.70;5.80;;;;;;;10.99;65.88;99470.13;103101;1296;97851;-72
2022/10/11 06:11:31;;;;;;;18.50;6.50;;;;;;;11.07;65.90;99475.50;103088;1303;110896;-72
2022/10/11 06:14:00;;;;;;;15.20;6.20;;;;;;;11.15;65.92;99479.76;102972;1306;98008;-73
2022/10/11 06:16:28;;;;;;;17.20;6.50;;;;;;;11.22;65.89;99484.75;102983;1305;107409;-72
2022/10/11 06:18:57;;;;;;;19.80;6.40;;;;;;;11.28;65.90;99486.45;102982;1305;97759;-72
2022/10/11 06:21:25;;;;;;;15.60;6.20;;;;;;;11.33;65.93;99486.16;103129;1303;98000;-71
2022/10/11 06:23:54;;;;;;;20.90;6.30;;;;;;;11.38;65.92;99490.77;103121;1303;111191;-70
2022/10/11 06:26:30;;;;;;;12.60;5.80;;;;;;;11.41;65.91;99491.61;103111;1303;95189;-72
2022/10/11 06:29:00;;;;;;;15.20;6.40;;;;;;;11.44;65.82;99496.41;102928;1300;107551;-72
2022/10/11 06:31:28;;;;;;;14.10;6.00;;;;;;;11.46;65.85;99495.70;103120;1297;97858;-73
2022/10/11 06:33:59;;;;;;;14.70;6.20;;;;;;;11.51;65.88;99500.02;103112;1298;97884;-70
2022/10/11 06:36:28;;;;;;;12.90;5.90;;;;;;;11.57;65.93;99501.33;103057;1303;111531;-71
2022/10/11 06:38:56;;;;;;;17.80;6.50;;;;;;;11.66;65.96;99503.39;103074;1296;98096;-71
2022/10/11 06:41:28;;;;;;;15.80;5.60;;;;;;;11.73;65.91;99506.27;103151;1304;107361;-73
2022/10/11 06:43:57;;;;;;;17.30;6.40;;;;;;;11.80;65.88;99507.20;103149;1298;96638;-72
2022/10/11 06:46:27;;;;;;;14.90;5.90;;;;;;;11.87;65.87;99511.70;103169;1298;97983;-73
2022/10/11 06:48:57;;;;;;;14.20;6.20;;;;;;;11.94;65.74;99514.59;103165;1298;110900;-73
2022/10/11 06:51:28;;;;;;;16.90;6.30;;;;;;;12.01;65.77;99517.84;103177;1303;98096;-72
2022/10/11 06:54:00;;;;;;;17.10;6.80;;;;;;;12.06;65.84;99518.35;103163;1302;106494;-73
2022/10/11 06:56:30;;;;;;;17.60;6.70;;;;;;;12.12;65.79;99517.81;103138;1303;95108;-72
2022/10/11 06:58:59;;;;;;;14.10;5.80;;;;;;;12.16;65.75;99526.59;103167;1296;97918;-72
2022/10/11 07:01:27;;;;;;;17.10;6.50;;;;;;;12.19;65.68;99527.58;102930;1304;111188;-73
2022/10/11 07:03:59;;;;;;;13.50;5.90;;;;;;;12.24;65.73;99530.98;103112;1296;97789;-72
2022/10/11 07:06:30;;;;;;;18.00;6.20;;;;;;;12.27;65.74;99532.14;102943;1305;109936;-72
2022/10/11 07:09:00;;;;;;;19.20;6.90;;;;;;;12.30;65.57;99533.02;103052;1302;97997;-72
2022/10/11 07:11:27;;;;;;;16.40;6.60;;;;;;;12.32;65.63;99531.78;103079;1303;95123;-72
2022/10/11 07:14:00;;;;;;;12.10;5.90;;;;;;;12.38;65.60;99537.27;103125;1297;111129;-71
2022/10/11 07:16:29;;;;;;;18.70;6.50;;;;;;;12.45;65.54;99537.99;103171;1297;97899;-74
2022/10/11 07:18:59;;;;;;;14.10;6.40;;;;;;;12.51;65.49;99538.81;103139;1298;107573;-72
2022/10/11 07:21:31;;;;;;;17.20;6.50;;;;;;;12.58;65.53;99538.15;102900;1291;96984;-76
2022/10/11 07:24:00;;;;;;;16.90;6.20;;;;;;;12.63;65.54;99542.51;103044;1304;97919;-74
2022/10/11 07:26:30;;;;;;;17.40;6.70;;;;;;;12.70;65.55;99539.23;103073;1303;112887;-74
2022/10/11 07:29:09;;;;;;;15.90;5.70;;;;;;;12.77;65.59;99543.48;103039;1303;97917;-72
2022/10/11 07:31:41;;;;;;;16.30;5.90;;;;;;;12.86;65.51;99547.06;103057;1303;107514;-72
2022/10/11 07:34:10;;;;;;;15.10;5.90;;;;;;;12.99;65.48;99543.50;103098;1303;97913;-73
2022/10/11 07:36:39;;;;;;;13.60;6.00;;;;;;;13.12;65.34;99547.64;103155;1305;97903;-72
2022/10/11 07:39:07;;;;;;;13.60;6.50;;;;;;;13.24;65.36;99549.97;103134;1296;111130;-73
2022/10/11 07:41:37;;;;;;;17.20;6.60;;;;;;;13.34;65.31;99550.60;103057;1297;97869;-72
2022/10/11 07:44:13;;;;;;;15.60;6.00;;;;;;;13.46;65.36;99547.23;103027;1304;107859;-72
2022/10/11 07:46:43;;;;;;;17.10;6.40;;;;;;;13.58;65.33;99546.70;103053;1304;98006;-72
2022/10/11 07:49:11;;;;;;;18.70;6.90;;;;;;;13.72;65.31;99551.31;103076;1303;97771;-72
2022/10/11 07:51:39;;;;;;;16.70;6.60;;;;;;;13.85;65.22;99550.27;103083;1304;110743;-72
2022/10/11 07:54:07;;;;;;;16.30;6.70;;;;;;;13.93;65.12;99550.71;103067;1296;97972;-72
2022/10/11 07:56:36;;;;;;;14.40;6.20;;;;;;;14.01;65.14;99555.64;103045;1298;107354;-71
2022/10/11 07:59:05;;;;;;;16.40;6.80;;;;;;;14.12;65.19;99563.35;103055;1302;97977;-71
2022/10/11 08:01:33;;;;;;;16.30;7.20;;;;;;;14.23;65.10;99564.02;103084;1303;97893;-71
2022/10/11 08:04:01;;;;;;;18.60;6.80;;;;;;;14.37;65.10;99568.37;103023;1304;111192;-72
2022/10/11 08:06:31;;;;;;;15.00;6.20;;;;;;;14.50;64.92;99565.88;103000;1304;95324;-72
2022/10/11 08:09:00;;;;;;;18.80;6.90;;;;;;;14.62;64.50;99562.95;103004;1296;107395;-72
2022/10/11 08:11:37;;;;;;;18.30;7.80;;;;;;;14.73;64.35;99564.16;103091;1290;98070;-71
2022/10/11 08:14:10;;;;;;;23.90;7.40;;;;;;;14.88;64.93;99564.77;103134;1297;97838;-71
2022/10/11 08:16:39;;;;;;;17.80;7.90;;;;;;;15.06;64.74;99563.48;103074;1296;111260;-73
2022/10/11 08:19:09;;;;;;;18.00;7.10;;;;;;;15.21;64.77;99562.92;103126;1301;95181;-72
2022/10/11 08:21:36;;;;;;;18.90;7.10;;;;;;;15.29;64.45;99564.95;103070;1296;107428;-72
2022/10/11 08:24:06;;;;;;;16.60;7.20;;;;;;;15.25;64.35;99563.88;103093;1298;98032;-71
2022/10/11 08:26:34;;;;;;;22.70;7.40;;;;;;;15.20;64.54;99566.77;103118;1298;95297;-72
2022/10/11 08:29:03;;;;;;;15.80;7.20;;;;;;;15.15;64.54;99564.67;103136;1303;111163;-72
2022/10/11 08:31:34;;;;;;;18.10;7.00;;;;;;;15.13;64.57;99569.98;103169;1296;97923;-72
2022/10/11 08:34:03;;;;;;;16.60;7.20;;;;;;;15.07;63.76;99573.21;103145;1296;107582;-72
2022/10/11 08:36:32;;;;;;;13.50;6.10;;;;;;;14.97;63.73;99570.23;103087;1297;99046;-72
2022/10/11 08:39:02;;;;;;;17.60;7.50;;;;;;;14.93;64.26;99575.24;103191;1304;97970;-74
2022/10/11 08:41:53;;;;;;;15.20;6.70;;;;;;;14.92;64.25;99575.36;103158;1297;111161;-72
2022/10/11 08:44:39;;;;;;;18.40;6.80;;;;;;;14.90;64.29;99575.64;103000;1300;98024;-75
2022/10/11 08:47:36;;;;;;;19.80;7.80;;;;;;;14.92;64.48;99575.83;103174;1304;107641;-71
2022/10/11 08:50:15;;;;;;;16.80;7.10;;;;;;;14.98;64.44;99575.00;103100;1304;97115;-71
2022/10/11 08:52:55;;;;;;;17.10;7.20;;;;;;;15.00;64.31;99575.34;103079;1296;95310;-72
2022/10/11 08:55:46;;;;;;;18.50;8.10;;;;;;;15.03;64.28;99579.98;103074;1304;111197;-72
2022/10/11 08:58:28;;;;;;;15.80;7.80;;;;;;;15.03;64.17;99580.85;103107;1304;97934;-71
2022/10/11 09:00:58;;;;;;;17.60;7.40;;;;;;;15.03;64.22;99581.37;103116;1298;107385;-72
2022/10/11 09:03:39;;;;;;;20.90;7.50;;;;;;;15.07;64.25;99582.70;103188;1300;97979;-72
2022/10/11 09:06:22;;;;;;;20.00;8.40;;;;;;;15.13;64.20;99582.00;103022;1297;97940;-72
2022/10/11 09:09:25;;;;;;;19.40;8.10;;;;;;;15.17;64.23;99586.27;103051;1298;111622;-72
2022/10/11 09:12:05;;;;;;;20.80;7.50;;;;;;;15.20;64.11;99581.79;102759;1298;95323;-73
2022/10/11 09:14:39;;;;;;;19.00;8.10;;;;;;;15.20;64.16;99589.48;103166;1298;107455;-73
2022/10/11 09:17:19;;;;;;;21.60;8.50;;;;;;;15.17;64.19;99590.73;103231;1304;97974;-71
2022/10/11 09:20:12;;;;;;;20.80;8.50;;;;;;;15.14;64.15;99593.70;103237;1305;97863;-72
2022/10/11 09:23:01;;;;;;;21.50;9.30;;;;;;;15.02;64.06;99599.70;103202;1297;113148;-71
2022/10/11 09:25:33;;;;;;;25.40;10.10;;;;;;;14.93;64.12;99598.83;103151;1296;98098;-72
2022/10/11 09:28:12;;;;;;;23.10;10.00;;;;;;;14.88;64.14;99597.08;103185;1304;107488;-72
2022/10/11 09:30:52;;;;;;;22.00;9.50;;;;;;;14.82;64.09;99597.41;103127;1303;95190;-72
2022/10/11 09:33:32;;;;;;;21.20;9.30;;;;;;;14.80;64.16;99596.99;103074;1299;97969;-73
2022/10/11 09:36:11;;;;;;;21.00;8.60;;;;;;;14.78;64.11;99606.28;103060;1298;111248;-71
2022/10/11 09:39:03;;;;;;;19.30;8.20;;;;;;;14.73;64.08;99605.63;103195;1300;95223;-71
2022/10/11 09:41:47;;;;;;;21.40;8.20;;;;;;;14.65;64.08;99609.59;103139;1288;106657;-72
2022/10/11 09:44:27;;;;;;;18.20;8.30;;;;;;;14.55;63.97;99612.37;103060;1296;95167;-72
2022/10/11 09:46:57;;;;;;;22.20;8.30;;;;;;;14.44;63.90;99613.30;103142;1303;97925;-73
2022/10/11 09:49:37;;;;;;;20.00;8.80;;;;;;;14.33;63.90;99612.53;103125;1304;110913;-72
2022/10/11 09:52:16;;;;;;;21.20;8.70;;;;;;;14.28;64.04;99612.00;103186;1296;98096;-72
2022/10/11 09:54:54;;;;;;;19.30;8.70;;;;;;;14.26;64.09;99613.63;103070;1294;107513;-72
2022/10/11 09:57:26;;;;;;;18.40;8.60;;;;;;;14.23;64.07;99612.06;103087;1303;99071;-72
2022/10/11 10:00:20;;;;;;;22.10;9.50;;;;;;;14.20;64.01;99613.94;103060;1296;97969;-73
2022/10/11 10:02:56;;;;;;;22.70;9.20;;;;;;;14.15;64.05;99616.29;103051;1296;110820;-72
2022/10/11 10:05:35;;;;;;;20.50;9.40;;;;;;;14.09;63.94;99614.56;103047;1299;97965;-73
2022/10/11 10:08:07;;;;;;;21.40;8.70;;;;;;;14.00;63.91;99616.88;103064;1304;107543;-74
2022/10/11 10:10:40;;;;;;;20.50;8.90;;;;;;;13.93;63.97;99619.75;103019;1312;97872;-72
2022/10/11 10:13:23;;;;;;;19.90;9.20;;;;;;;13.87;63.95;99615.17;103073;1304;98544;-72
2022/10/11 10:15:59;;;;;;;22.50;9.20;;;;;;;13.82;63.90;99615.03;103058;1304;111126;-71
2022/10/11 10:18:49;;;;;;;23.20;9.60;;;;;;;13.81;64.04;99614.58;103082;1307;97665;-72
2022/10/11 10:21:28;;;;;;;23.90;10.90;;;;;;;13.87;64.01;99616.25;103072;1298;107471;-72
2022/10/11 10:24:02;;;;;;;22.70;10.70;;;;;;;13.95;64.08;99609.27;103073;1297;97919;-72
2022/10/11 10:26:33;;;;;;;21.50;10.30;;;;;;;14.08;64.22;99614.65;103135;1304;98034;-71
2022/10/11 10:29:06;;;;;;;24.00;11.00;;;;;;;14.20;64.19;99613.74;103134;1296;110777;-72
2022/10/11 10:31:40;;;;;;;23.70;10.30;;;;;;;14.26;64.32;99611.29;103092;1304;95297;-72
2022/10/11 10:34:36;;;;;;;27.20;10.40;;;;;;;14.31;64.23;99609.84;103129;1297;107342;-71
2022/10/11 10:37:07;;;;;;;22.90;9.60;;;;;;;14.39;64.27;99607.77;103144;1304;97991;-70
2022/10/11 10:39:53;;;;;;;22.30;9.70;;;;;;;14.48;64.38;99611.70;103150;1300;97982;-71
2022/10/11 10:42:23;;;;;;;21.00;10.10;;;;;;;14.58;64.40;99611.06;103077;1296;110845;-71
2022/10/11 10:44:57;;;;;;;22.60;11.30;;;;;;;14.67;64.42;99607.65;103163;1297;97894;-72
2022/10/11 10:47:55;;;;;;;21.30;10.40;;;;;;;14.82;64.36;99601.33;103087;1304;107466;-72
2022/10/11 10:50:39;;;;;;;24.70;11.80;;;;;;;15.12;64.60;99600.61;103063;1302;97940;-72
2022/10/11 10:53:19;;;;;;;24.90;10.70;;;;;;;15.39;64.52;99595.20;103100;1303;98013;-72
2022/10/11 10:55:59;;;;;;;25.60;10.80;;;;;;;15.59;64.56;99593.88;103071;1307;111136;-72
2022/10/11 10:58:44;;;;;;;23.20;10.00;;;;;;;15.71;64.35;99591.97;103125;1299;95905;-73
2022/10/11 11:01:27;;;;;;;21.10;10.10;;;;;;;15.72;64.24;99592.96;102971;1296;107916;-71
2022/10/11 11:03:58;;;;;;;26.20;10.50;;;;;;;15.71;64.28;99598.20;103008;1301;98199;-72
2022/10/11 11:06:59;;;;;;;24.40;10.50;;;;;;;15.72;64.32;99597.77;103174;1303;97939;-71
2022/10/11 11:09:49;;;;;;;22.10;10.50;;;;;;;15.75;64.36;99594.96;103104;1304;111188;-72
2022/10/11 11:12:41;;;;;;;22.30;10.50;;;;;;;15.82;64.36;99593.88;103102;1298;97981;-72
2022/10/11 11:15:22;;;;;;;22.40;10.30;;;;;;;15.91;64.33;99592.73;103132;1304;107503;-73
2022/10/11 11:18:25;;;;;;;23.20;10.30;;;;;;;15.99;64.15;99592.98;103100;1304;97950;-74
2022/10/11 11:21:25;;;;;;;20.90;10.20;;;;;;;16.00;64.17;99589.85;103149;1287;95504;-71
2022/10/11 11:24:17;;;;;;;21.80;10.40;;;;;;;16.01;64.11;99592.65;103187;1296;111156;-72
2022/10/11 11:27:10;;;;;;;23.20;10.50;;;;;;;16.00;64.08;99587.92;103140;1304;97937;-71
2022/10/11 11:29:48;;;;;;;24.00;10.10;;;;;;;16.04;64.24;99589.48;103185;1298;107339;-71
2022/10/11 11:32:36;;;;;;;24.80;10.60;;;;;;;16.14;64.32;99589.34;103127;1302;97899;-71
2022/10/11 11:35:16;;;;;;;24.20;11.00;;;;;;;16.15;64.19;99588.88;103117;1297;97865;-71
2022/10/11 11:37:49;;;;;;;22.60;11.00;;;;;;;16.13;64.04;99591.09;103136;1296;111275;-71
2022/10/11 11:40:37;;;;;;;21.60;10.10;;;;;;;16.10;64.10;99587.58;103181;1306;97857;-72
2022/10/11 11:43:22;;;;;;;24.80;11.10;;;;;;;16.13;64.11;99588.05;103103;1304;107214;-72
2022/10/11 11:46:00;;;;;;;23.00;10.10;;;;;;;16.14;63.98;99588.98;103119;1304;97957;-71
2022/10/11 11:48:27;;;;;;;24.40;10.40;;;;;;;16.15;64.34;99589.80;103094;1296;97887;-71